sensor_id;sensor_type;location;lat;lon;timestamp;pressure;altitude;pressure_sealevel;temperature;humidity
34696;BME280;20918;51.138;17.370;2023-02-03T00:02:28;100922.14;;;-1.81;78.54
34696;BME280;20918;51.138;17.370;2023-02-03T00:05:29;100923.06;;;-1.82;78.35
34696;BME280;20918;51.138;17.370;2023-02-03T00:08:34;100921.58;;;-1.84;78.59
34696;BME280;20918;51.138;17.370;2023-02-03T00:11:36;100921.23;;;-1.84;78.35
34696;BME280;20918;51.138;17.370;2023-02-03T00:14:37;100920.91;;;-1.84;78.62
34696;BME280;20918;51.138;17.370;2023-02-03T00:17:37;100922.14;;;-1.85;78.54
34696;BME280;20918;51.138;17.370;2023-02-03T00:20:38;100922.52;;;-1.85;78.76
34696;BME280;20918;51.138;17.370;2023-02-03T00:23:42;100919.52;;;-1.88;78.87
34696;BME280;20918;51.138;17.370;2023-02-03T00:26:45;100915.21;;;-1.89;78.73
34696;BME280;20918;51.138;17.370;2023-02-03T00:29:48;100913.88;;;-1.90;78.82
34696;BME280;20918;51.138;17.370;2023-02-03T00:32:49;100907.40;;;-1.92;78.87
34696;BME280;20918;51.138;17.370;2023-02-03T00:35:50;100907.98;;;-1.94;78.62
34696;BME280;20918;51.138;17.370;2023-02-03T00:38:50;100908.44;;;-1.96;78.69
34696;BME280;20918;51.138;17.370;2023-02-03T00:41:51;100909.17;;;-2.01;78.77
34696;BME280;20918;51.138;17.370;2023-02-03T00:44:52;100907.49;;;-2.07;78.71
34696;BME280;20918;51.138;17.370;2023-02-03T00:47:52;100905.61;;;-2.11;78.97
34696;BME280;20918;51.138;17.370;2023-02-03T00:50:53;100901.02;;;-2.13;78.94
34696;BME280;20918;51.138;17.370;2023-02-03T00:53:54;100907.05;;;-2.12;79.04
34696;BME280;20918;51.138;17.370;2023-02-03T00:56:56;100906.69;;;-2.12;79.11
34696;BME280;20918;51.138;17.370;2023-02-03T00:59:57;100904.73;;;-2.14;79.25
34696;BME280;20918;51.138;17.370;2023-02-03T01:02:57;100898.11;;;-2.18;79.36
34696;BME280;20918;51.138;17.370;2023-02-03T01:06:27;100898.77;;;-2.17;79.60
34696;BME280;20918;51.138;17.370;2023-02-03T01:09:32;100896.40;;;-2.18;79.66
34696;BME280;20918;51.138;17.370;2023-02-03T01:12:33;100894.08;;;-2.20;79.73
34696;BME280;20918;51.138;17.370;2023-02-03T01:15:34;100886.89;;;-2.23;79.89
34696;BME280;20918;51.138;17.370;2023-02-03T01:18:35;100882.38;;;-2.22;79.74
34696;BME280;20918;51.138;17.370;2023-02-03T01:21:37;100880.09;;;-2.22;79.87
34696;BME280;20918;51.138;17.370;2023-02-03T01:24:37;100881.14;;;-2.22;79.95
34696;BME280;20918;51.138;17.370;2023-02-03T01:27:38;100878.16;;;-2.25;79.92
34696;BME280;20918;51.138;17.370;2023-02-03T01:30:39;100875.86;;;-2.29;80.05
34696;BME280;20918;51.138;17.370;2023-02-03T01:33:40;100872.33;;;-2.31;80.14
34696;BME280;20918;51.138;17.370;2023-02-03T01:36:44;100865.23;;;-2.31;80.30
34696;BME280;20918;51.138;17.370;2023-02-03T01:39:46;100853.95;;;-2.31;80.37
34696;BME280;20918;51.138;17.370;2023-02-03T01:42:49;100848.35;;;-2.30;80.40
34696;BME280;20918;51.138;17.370;2023-02-03T01:45:50;100847.66;;;-2.30;80.63
34696;BME280;20918;51.138;17.370;2023-02-03T01:48:51;100835.89;;;-2.30;80.61
34696;BME280;20918;51.138;17.370;2023-02-03T01:51:53;100831.42;;;-2.31;80.68
34696;BME280;20918;51.138;17.370;2023-02-03T01:54:55;100814.27;;;-2.31;80.63
34696;BME280;20918;51.138;17.370;2023-02-03T01:58:05;100806.65;;;-2.31;80.87
34696;BME280;20918;51.138;17.370;2023-02-03T02:01:09;100799.65;;;-2.29;80.82
34696;BME280;20918;51.138;17.370;2023-02-03T02:04:10;100790.77;;;-2.29;81.07
34696;BME280;20918;51.138;17.370;2023-02-03T02:07:11;100783.28;;;-2.28;81.12
34696;BME280;20918;51.138;17.370;2023-02-03T02:10:14;100772.68;;;-2.27;81.02
34696;BME280;20918;51.138;17.370;2023-02-03T02:13:16;100767.61;;;-2.26;81.21
34696;BME280;20918;51.138;17.370;2023-02-03T02:16:54;100753.29;;;-2.28;81.09
34696;BME280;20918;51.138;17.370;2023-02-03T02:20:13;100747.43;;;-2.29;81.45
34696;BME280;20918;51.138;17.370;2023-02-03T02:33:31;100756.70;;;-2.22;82.05
34696;BME280;20918;51.138;17.370;2023-02-03T02:37:00;100761.15;;;-2.21;81.61
34696;BME280;20918;51.138;17.370;2023-02-03T02:46:16;100740.49;;;-2.21;81.94
34696;BME280;20918;51.138;17.370;2023-02-03T02:49:25;100729.64;;;-2.22;82.34
34696;BME280;20918;51.138;17.370;2023-02-03T02:52:31;100726.74;;;-2.23;82.19
34696;BME280;20918;51.138;17.370;2023-02-03T02:55:36;100720.88;;;-2.24;82.23
34696;BME280;20918;51.138;17.370;2023-02-03T02:58:42;100709.17;;;-2.25;82.27
34696;BME280;20918;51.138;17.370;2023-02-03T03:01:44;100697.44;;;-2.27;82.93
34696;BME280;20918;51.138;17.370;2023-02-03T03:04:46;100688.14;;;-2.28;82.74
34696;BME280;20918;51.138;17.370;2023-02-03T03:07:57;100685.06;;;-2.29;82.96
34696;BME280;20918;51.138;17.370;2023-02-03T03:11:02;100684.02;;;-2.29;83.04
34696;BME280;20918;51.138;17.370;2023-02-03T03:14:05;100675.80;;;-2.27;83.43
34696;BME280;20918;51.138;17.370;2023-02-03T03:17:10;100659.48;;;-2.27;83.12
34696;BME280;20918;51.138;17.370;2023-02-03T03:20:17;100651.13;;;-2.26;83.46
34696;BME280;20918;51.138;17.370;2023-02-03T03:23:25;100650.59;;;-2.26;83.68
34696;BME280;20918;51.138;17.370;2023-02-03T03:26:41;100647.26;;;-2.24;83.64
34696;BME280;20918;51.138;17.370;2023-02-03T03:29:55;100637.12;;;-2.23;83.92
34696;BME280;20918;51.138;17.370;2023-02-03T03:32:57;100632.75;;;-2.22;83.83
34696;BME280;20918;51.138;17.370;2023-02-03T03:36:03;100629.39;;;-2.21;84.28
34696;BME280;20918;51.138;17.370;2023-02-03T03:39:14;100629.11;;;-2.18;84.10
34696;BME280;20918;51.138;17.370;2023-02-03T03:48:53;100612.91;;;-2.13;84.37
34696;BME280;20918;51.138;17.370;2023-02-03T03:52:00;100619.12;;;-2.12;84.55
34696;BME280;20918;51.138;17.370;2023-02-03T03:55:05;100615.82;;;-2.12;84.48
34696;BME280;20918;51.138;17.370;2023-02-03T03:58:11;100617.10;;;-2.10;84.71
34696;BME280;20918;51.138;17.370;2023-02-03T04:01:14;100612.52;;;-2.08;84.33
34696;BME280;20918;51.138;17.370;2023-02-03T04:04:17;100607.66;;;-2.05;84.27
34696;BME280;20918;51.138;17.370;2023-02-03T04:07:19;100603.17;;;-2.01;84.40
34696;BME280;20918;51.138;17.370;2023-02-03T04:10:31;100598.02;;;-1.99;84.55
34696;BME280;20918;51.138;17.370;2023-02-03T04:13:32;100595.01;;;-1.98;84.69
34696;BME280;20918;51.138;17.370;2023-02-03T04:16:33;100589.89;;;-1.96;84.67
34696;BME280;20918;51.138;17.370;2023-02-03T04:19:33;100589.88;;;-1.96;84.62
34696;BME280;20918;51.138;17.370;2023-02-03T04:22:34;100601.27;;;-1.94;84.78
34696;BME280;20918;51.138;17.370;2023-02-03T04:25:34;100599.81;;;-1.93;85.18
34696;BME280;20918;51.138;17.370;2023-02-03T04:28:35;100602.34;;;-1.92;84.93
34696;BME280;20918;51.138;17.370;2023-02-03T04:31:36;100585.84;;;-1.91;85.05
34696;BME280;20918;51.138;17.370;2023-02-03T04:34:37;100578.34;;;-1.90;84.91
34696;BME280;20918;51.138;17.370;2023-02-03T04:37:38;100570.83;;;-1.89;85.32
34696;BME280;20918;51.138;17.370;2023-02-03T04:40:41;100563.15;;;-1.88;85.41
34696;BME280;20918;51.138;17.370;2023-02-03T04:43:44;100552.39;;;-1.88;85.57
34696;BME280;20918;51.138;17.370;2023-02-03T04:46:45;100553.01;;;-1.87;85.48
34696;BME280;20918;51.138;17.370;2023-02-03T04:49:46;100550.13;;;-1.85;85.59
34696;BME280;20918;51.138;17.370;2023-02-03T04:52:47;100541.88;;;-1.83;85.37
34696;BME280;20918;51.138;17.370;2023-02-03T04:55:47;100533.25;;;-1.80;85.59
34696;BME280;20918;51.138;17.370;2023-02-03T04:58:48;100524.38;;;-1.76;85.42
34696;BME280;20918;51.138;17.370;2023-02-03T05:01:49;100524.59;;;-1.73;85.48
34696;BME280;20918;51.138;17.370;2023-02-03T05:04:49;100521.80;;;-1.69;85.38
34696;BME280;20918;51.138;17.370;2023-02-03T05:07:50;100508.63;;;-1.66;85.36
34696;BME280;20918;51.138;17.370;2023-02-03T05:10:51;100504.08;;;-1.63;85.51
34696;BME280;20918;51.138;17.370;2023-02-03T05:13:52;100494.52;;;-1.59;85.11
34696;BME280;20918;51.138;17.370;2023-02-03T05:16:53;100487.55;;;-1.55;85.27
34696;BME280;20918;51.138;17.370;2023-02-03T05:19:57;100476.48;;;-1.52;84.91
34696;BME280;20918;51.138;17.370;2023-02-03T05:22:58;100462.42;;;-1.49;84.77
34696;BME280;20918;51.138;17.370;2023-02-03T05:25:58;100464.38;;;-1.46;84.38
34696;BME280;20918;51.138;17.370;2023-02-03T05:29:00;100464.34;;;-1.43;84.49
34696;BME280;20918;51.138;17.370;2023-02-03T05:32:00;100460.88;;;-1.39;84.30
34696;BME280;20918;51.138;17.370;2023-02-03T05:35:01;100458.92;;;-1.36;84.06
34696;BME280;20918;51.138;17.370;2023-02-03T05:38:02;100450.14;;;-1.33;84.06
34696;BME280;20918;51.138;17.370;2023-02-03T05:41:03;100440.80;;;-1.31;83.91
34696;BME280;20918;51.138;17.370;2023-02-03T05:44:25;100443.84;;;-1.29;83.86
34696;BME280;20918;51.138;17.370;2023-02-03T05:47:26;100439.02;;;-1.26;84.08
34696;BME280;20918;51.138;17.370;2023-02-03T05:50:30;100434.91;;;-1.25;83.41
34696;BME280;20918;51.138;17.370;2023-02-03T05:53:40;100426.84;;;-1.23;83.71
34696;BME280;20918;51.138;17.370;2023-02-03T05:56:41;100424.11;;;-1.21;83.44
34696;BME280;20918;51.138;17.370;2023-02-03T05:59:46;100420.56;;;-1.19;83.73
34696;BME280;20918;51.138;17.370;2023-02-03T06:02:51;100417.91;;;-1.18;83.74
34696;BME280;20918;51.138;17.370;2023-02-03T06:05:52;100413.75;;;-1.16;83.32
34696;BME280;20918;51.138;17.370;2023-02-03T06:08:52;100411.75;;;-1.14;83.79
34696;BME280;20918;51.138;17.370;2023-02-03T06:11:56;100398.23;;;-1.14;84.02
34696;BME280;20918;51.138;17.370;2023-02-03T06:14:57;100404.19;;;-1.15;84.14
34696;BME280;20918;51.138;17.370;2023-02-03T06:17:57;100398.04;;;-1.17;84.18
34696;BME280;20918;51.138;17.370;2023-02-03T06:20:58;100399.05;;;-1.20;84.61
34696;BME280;20918;51.138;17.370;2023-02-03T06:23:59;100393.69;;;-1.23;85.04
34696;BME280;20918;51.138;17.370;2023-02-03T06:27:05;100386.23;;;-1.26;85.43
34696;BME280;20918;51.138;17.370;2023-02-03T06:30:07;100381.41;;;-1.30;85.61
34696;BME280;20918;51.138;17.370;2023-02-03T06:33:07;100376.02;;;-1.33;85.69
34696;BME280;20918;51.138;17.370;2023-02-03T06:36:08;100369.05;;;-1.36;85.84
34696;BME280;20918;51.138;17.370;2023-02-03T06:39:10;100363.17;;;-1.40;86.78
34696;BME280;20918;51.138;17.370;2023-02-03T06:42:11;100360.44;;;-1.43;87.13
34696;BME280;20918;51.138;17.370;2023-02-03T06:45:12;100356.14;;;-1.44;87.51
34696;BME280;20918;51.138;17.370;2023-02-03T06:48:13;100342.13;;;-1.45;87.70
34696;BME280;20918;51.138;17.370;2023-02-03T06:51:14;100339.52;;;-1.45;87.92
34696;BME280;20918;51.138;17.370;2023-02-03T06:54:14;100330.36;;;-1.46;88.30
34696;BME280;20918;51.138;17.370;2023-02-03T06:57:15;100313.39;;;-1.46;88.56
34696;BME280;20918;51.138;17.370;2023-02-03T07:00:17;100299.56;;;-1.47;88.97
34696;BME280;20918;51.138;17.370;2023-02-03T07:03:21;100291.25;;;-1.47;89.18
34696;BME280;20918;51.138;17.370;2023-02-03T07:06:21;100285.27;;;-1.46;89.10
34696;BME280;20918;51.138;17.370;2023-02-03T07:09:23;100272.19;;;-1.45;89.53
34696;BME280;20918;51.138;17.370;2023-02-03T07:12:24;100265.34;;;-1.43;89.76
34696;BME280;20918;51.138;17.370;2023-02-03T07:15:25;100259.70;;;-1.42;90.67
34696;BME280;20918;51.138;17.370;2023-02-03T07:18:25;100254.31;;;-1.39;90.55
34696;BME280;20918;51.138;17.370;2023-02-03T07:21:26;100237.30;;;-1.36;91.43
34696;BME280;20918;51.138;17.370;2023-02-03T07:24:27;100227.69;;;-1.31;91.31
34696;BME280;20918;51.138;17.370;2023-02-03T07:27:27;100215.83;;;-1.27;91.53
34696;BME280;20918;51.138;17.370;2023-02-03T07:30:29;100212.48;;;-1.23;92.02
34696;BME280;20918;51.138;17.370;2023-02-03T07:33:30;100203.95;;;-1.20;91.85
34696;BME280;20918;51.138;17.370;2023-02-03T07:36:32;100192.58;;;-1.16;92.20
34696;BME280;20918;51.138;17.370;2023-02-03T07:39:33;100185.66;;;-1.10;92.12
34696;BME280;20918;51.138;17.370;2023-02-03T07:42:33;100181.38;;;-1.05;92.35
34696;BME280;20918;51.138;17.370;2023-02-03T07:45:35;100172.95;;;-1.01;92.58
34696;BME280;20918;51.138;17.370;2023-02-03T07:48:36;100165.85;;;-0.95;92.78
34696;BME280;20918;51.138;17.370;2023-02-03T07:51:37;100157.23;;;-0.91;92.71
34696;BME280;20918;51.138;17.370;2023-02-03T07:54:37;100142.31;;;-0.85;93.14
34696;BME280;20918;51.138;17.370;2023-02-03T07:57:39;100128.36;;;-0.81;93.68
34696;BME280;20918;51.138;17.370;2023-02-03T08:00:45;100118.22;;;-0.77;94.05
34696;BME280;20918;51.138;17.370;2023-02-03T08:03:46;100107.75;;;-0.74;94.07
34696;BME280;20918;51.138;17.370;2023-02-03T08:06:46;100099.92;;;-0.71;93.89
34696;BME280;20918;51.138;17.370;2023-02-03T08:09:47;100093.42;;;-0.67;94.04
34696;BME280;20918;51.138;17.370;2023-02-03T08:12:48;100085.75;;;-0.64;94.34
34696;BME280;20918;51.138;17.370;2023-02-03T08:15:48;100079.29;;;-0.63;94.60
34696;BME280;20918;51.138;17.370;2023-02-03T08:18:49;100075.48;;;-0.61;94.92
34696;BME280;20918;51.138;17.370;2023-02-03T08:21:49;100063.39;;;-0.59;94.73
34696;BME280;20918;51.138;17.370;2023-02-03T08:24:50;100053.92;;;-0.58;94.51
34696;BME280;20918;51.138;17.370;2023-02-03T08:27:52;100042.98;;;-0.55;94.86
34696;BME280;20918;51.138;17.370;2023-02-03T08:30:52;100030.55;;;-0.54;94.69
34696;BME280;20918;51.138;17.370;2023-02-03T08:33:53;100027.48;;;-0.52;94.88
34696;BME280;20918;51.138;17.370;2023-02-03T08:36:54;100021.80;;;-0.50;95.13
34696;BME280;20918;51.138;17.370;2023-02-03T08:39:55;100010.10;;;-0.49;95.21
34696;BME280;20918;51.138;17.370;2023-02-03T08:42:56;100008.26;;;-0.47;95.62
34696;BME280;20918;51.138;17.370;2023-02-03T08:46:01;99994.71;;;-0.44;95.90
34696;BME280;20918;51.138;17.370;2023-02-03T08:49:02;99991.27;;;-0.42;95.84
34696;BME280;20918;51.138;17.370;2023-02-03T08:52:03;99983.14;;;-0.40;96.00
34696;BME280;20918;51.138;17.370;2023-02-03T08:55:06;99976.96;;;-0.39;95.98
34696;BME280;20918;51.138;17.370;2023-02-03T08:58:07;99961.65;;;-0.39;96.09
34696;BME280;20918;51.138;17.370;2023-02-03T09:01:13;99963.76;;;-0.36;96.12
34696;BME280;20918;51.138;17.370;2023-02-03T09:04:16;99959.92;;;-0.36;96.16
34696;BME280;20918;51.138;17.370;2023-02-03T09:07:24;99948.11;;;-0.33;96.05
34696;BME280;20918;51.138;17.370;2023-02-03T09:10:25;99944.48;;;-0.31;96.20
34696;BME280;20918;51.138;17.370;2023-02-03T09:13:25;99935.89;;;-0.28;95.95
34696;BME280;20918;51.138;17.370;2023-02-03T09:16:26;99927.02;;;-0.25;96.09
34696;BME280;20918;51.138;17.370;2023-02-03T09:19:27;99913.89;;;-0.24;96.27
34696;BME280;20918;51.138;17.370;2023-02-03T09:22:27;99909.80;;;-0.22;96.33
34696;BME280;20918;51.138;17.370;2023-02-03T09:25:28;99896.77;;;-0.20;96.47
34696;BME280;20918;51.138;17.370;2023-02-03T09:28:29;99900.02;;;-0.16;96.58
34696;BME280;20918;51.138;17.370;2023-02-03T09:31:31;99895.69;;;-0.09;96.28
34696;BME280;20918;51.138;17.370;2023-02-03T09:34:31;99881.21;;;-0.03;96.27
34696;BME280;20918;51.138;17.370;2023-02-03T09:37:32;99867.53;;;0.01;96.27
34696;BME280;20918;51.138;17.370;2023-02-03T09:40:34;99860.86;;;0.02;96.04
34696;BME280;20918;51.138;17.370;2023-02-03T09:47:00;99845.27;;;0.06;95.96
34696;BME280;20918;51.138;17.370;2023-02-03T09:50:05;99838.02;;;0.08;95.72
34696;BME280;20918;51.138;17.370;2023-02-03T09:53:18;99821.46;;;0.09;96.08
34696;BME280;20918;51.138;17.370;2023-02-03T09:56:40;99824.55;;;0.09;96.01
34696;BME280;20918;51.138;17.370;2023-02-03T09:59:46;99811.44;;;0.10;95.98
34696;BME280;20918;51.138;17.370;2023-02-03T10:06:13;99779.15;;;0.07;96.42
34696;BME280;20918;51.138;17.370;2023-02-03T10:19:24;99776.75;;;0.13;95.79
34696;BME280;20918;51.138;17.370;2023-02-03T10:22:28;99750.61;;;0.14;96.42
34696;BME280;20918;51.138;17.370;2023-02-03T10:25:51;99726.54;;;0.13;96.62
34696;BME280;20918;51.138;17.370;2023-02-03T10:29:07;99713.63;;;0.16;97.14
34696;BME280;20918;51.138;17.370;2023-02-03T10:32:13;99697.04;;;0.19;96.64
34696;BME280;20918;51.138;17.370;2023-02-03T10:35:15;99692.74;;;0.23;96.44
34696;BME280;20918;51.138;17.370;2023-02-03T10:41:29;99675.57;;;0.30;96.49
34696;BME280;20918;51.138;17.370;2023-02-03T10:47:43;99661.58;;;0.33;96.59
34696;BME280;20918;51.138;17.370;2023-02-03T10:50:51;99653.70;;;0.33;96.31
34696;BME280;20918;51.138;17.370;2023-02-03T10:53:53;99638.46;;;0.32;96.58
34696;BME280;20918;51.138;17.370;2023-02-03T10:57:00;99610.12;;;0.32;96.61
34696;BME280;20918;51.138;17.370;2023-02-03T11:00:05;99593.18;;;0.33;96.80
34696;BME280;20918;51.138;17.370;2023-02-03T11:03:29;99581.19;;;0.35;96.69
34696;BME280;20918;51.138;17.370;2023-02-03T11:07:02;99572.20;;;0.39;97.11
34696;BME280;20918;51.138;17.370;2023-02-03T11:13:25;99548.52;;;0.48;96.97
34696;BME280;20918;51.138;17.370;2023-02-03T11:16:28;99545.45;;;0.55;97.08
34696;BME280;20918;51.138;17.370;2023-02-03T11:19:29;99535.54;;;0.59;97.17
34696;BME280;20918;51.138;17.370;2023-02-03T11:22:30;99540.76;;;0.64;97.17
34696;BME280;20918;51.138;17.370;2023-02-03T11:25:34;99530.91;;;0.65;97.08
34696;BME280;20918;51.138;17.370;2023-02-03T11:28:35;99519.31;;;0.66;97.07
34696;BME280;20918;51.138;17.370;2023-02-03T11:31:36;99505.77;;;0.70;97.32
34696;BME280;20918;51.138;17.370;2023-02-03T11:34:37;99489.48;;;0.74;97.35
34696;BME280;20918;51.138;17.370;2023-02-03T11:37:40;99479.17;;;0.79;97.54
34696;BME280;20918;51.138;17.370;2023-02-03T11:40:41;99467.58;;;0.84;97.55
34696;BME280;20918;51.138;17.370;2023-02-03T11:43:44;99454.24;;;0.93;98.02
34696;BME280;20918;51.138;17.370;2023-02-03T11:46:49;99446.84;;;0.98;98.07
34696;BME280;20918;51.138;17.370;2023-02-03T12:29:11;99345.13;;;1.28;98.30
34696;BME280;20918;51.138;17.370;2023-02-03T12:32:23;99334.36;;;1.31;98.38
34696;BME280;20918;51.138;17.370;2023-02-03T12:35:42;99326.13;;;1.37;98.22
34696;BME280;20918;51.138;17.370;2023-02-03T12:38:54;99315.20;;;1.40;98.13
34696;BME280;20918;51.138;17.370;2023-02-03T12:42:03;99307.23;;;1.45;98.17
34696;BME280;20918;51.138;17.370;2023-02-03T12:48:17;99292.05;;;1.56;98.12
34696;BME280;20918;51.138;17.370;2023-02-03T12:51:41;99279.31;;;1.62;98.47
34696;BME280;20918;51.138;17.370;2023-02-03T12:58:19;99267.55;;;1.76;98.43
34696;BME280;20918;51.138;17.370;2023-02-03T13:01:31;99260.64;;;1.83;98.66
34696;BME280;20918;51.138;17.370;2023-02-03T13:07:52;99253.73;;;2.02;98.88
34696;BME280;20918;51.138;17.370;2023-02-03T13:11:08;99246.30;;;2.08;99.10
34696;BME280;20918;51.138;17.370;2023-02-03T13:17:29;99235.40;;;2.29;99.83
34696;BME280;20918;51.138;17.370;2023-02-03T13:20:34;99232.43;;;2.44;100.00
34696;BME280;20918;51.138;17.370;2023-02-03T13:23:41;99234.57;;;2.60;100.00
34696;BME280;20918;51.138;17.370;2023-02-03T13:40:52;99252.44;;;3.13;100.00
34696;BME280;20918;51.138;17.370;2023-02-03T13:43:39;99264.86;;;3.15;100.00
34696;BME280;20918;51.138;17.370;2023-02-03T13:46:46;99270.27;;;3.19;100.00
34696;BME280;20918;51.138;17.370;2023-02-03T13:50:01;99257.09;;;3.22;100.00
34696;BME280;20918;51.138;17.370;2023-02-03T13:53:22;99219.67;;;3.24;100.00
34696;BME280;20918;51.138;17.370;2023-02-03T13:56:28;99194.05;;;3.36;100.00
34696;BME280;20918;51.138;17.370;2023-02-03T13:59:43;99198.13;;;3.47;100.00
34696;BME280;20918;51.138;17.370;2023-02-03T14:02:51;99198.27;;;3.52;100.00
34696;BME280;20918;51.138;17.370;2023-02-03T14:05:55;99208.83;;;3.57;100.00
34696;BME280;20918;51.138;17.370;2023-02-03T14:08:58;99221.67;;;3.64;100.00
34696;BME280;20918;51.138;17.370;2023-02-03T14:18:42;99230.93;;;3.81;100.00
34696;BME280;20918;51.138;17.370;2023-02-03T14:21:48;99229.14;;;3.81;100.00
34696;BME280;20918;51.138;17.370;2023-02-03T14:24:55;99232.63;;;3.85;99.98
34696;BME280;20918;51.138;17.370;2023-02-03T14:28:12;99230.78;;;3.86;99.60
34696;BME280;20918;51.138;17.370;2023-02-03T14:31:19;99225.73;;;3.86;99.22
34696;BME280;20918;51.138;17.370;2023-02-03T14:34:40;99230.98;;;3.88;98.52
34696;BME280;20918;51.138;17.370;2023-02-03T14:37:52;99241.01;;;3.89;97.84
34696;BME280;20918;51.138;17.370;2023-02-03T14:41:02;99257.94;;;3.89;97.28
34696;BME280;20918;51.138;17.370;2023-02-03T14:47:34;99259.14;;;3.78;96.71
34696;BME280;20918;51.138;17.370;2023-02-03T15:01:03;99283.47;;;3.66;96.65
34696;BME280;20918;51.138;17.370;2023-02-03T15:07:34;99296.77;;;3.62;96.89
34696;BME280;20918;51.138;17.370;2023-02-03T15:13:40;99308.83;;;3.69;96.96
34696;BME280;20918;51.138;17.370;2023-02-03T15:16:42;99315.33;;;3.71;96.98
34696;BME280;20918;51.138;17.370;2023-02-03T15:19:43;99319.37;;;3.71;96.84
34696;BME280;20918;51.138;17.370;2023-02-03T15:22:44;99328.70;;;3.68;96.60
34696;BME280;20918;51.138;17.370;2023-02-03T15:25:45;99330.39;;;3.67;96.70
34696;BME280;20918;51.138;17.370;2023-02-03T15:29:02;99329.42;;;3.66;96.67
34696;BME280;20918;51.138;17.370;2023-02-03T15:32:10;99331.15;;;3.66;96.90
34696;BME280;20918;51.138;17.370;2023-02-03T15:35:14;99328.27;;;3.63;96.69
34696;BME280;20918;51.138;17.370;2023-02-03T15:38:29;99327.61;;;3.59;96.74
34696;BME280;20918;51.138;17.370;2023-02-03T15:41:33;99343.27;;;3.58;97.05
34696;BME280;20918;51.138;17.370;2023-02-03T15:44:40;99348.69;;;3.56;96.91
34696;BME280;20918;51.138;17.370;2023-02-03T15:54:38;99365.70;;;3.55;97.38
34696;BME280;20918;51.138;17.370;2023-02-03T15:57:43;99367.71;;;3.52;97.09
34696;BME280;20918;51.138;17.370;2023-02-03T16:00:49;99370.07;;;3.50;97.06
34696;BME280;20918;51.138;17.370;2023-02-03T16:03:55;99364.46;;;3.48;97.34
34696;BME280;20918;51.138;17.370;2023-02-03T16:10:35;99367.27;;;3.44;97.38
34696;BME280;20918;51.138;17.370;2023-02-03T16:13:41;99367.80;;;3.42;97.13
34696;BME280;20918;51.138;17.370;2023-02-03T16:16:48;99370.63;;;3.40;97.15
34696;BME280;20918;51.138;17.370;2023-02-03T16:26:21;99393.84;;;3.42;97.53
34696;BME280;20918;51.138;17.370;2023-02-03T16:29:28;99390.14;;;3.43;97.25
34696;BME280;20918;51.138;17.370;2023-02-03T16:33:13;99386.58;;;3.45;97.31
34696;BME280;20918;51.138;17.370;2023-02-03T16:36:43;99382.11;;;3.48;97.46
34696;BME280;20918;51.138;17.370;2023-02-03T16:40:09;99387.90;;;3.52;97.13
34696;BME280;20918;51.138;17.370;2023-02-03T16:43:30;99398.68;;;3.52;96.79
34696;BME280;20918;51.138;17.370;2023-02-03T16:46:50;99399.20;;;3.52;96.28
34696;BME280;20918;51.138;17.370;2023-02-03T16:53:35;99397.04;;;3.53;96.51
34696;BME280;20918;51.138;17.370;2023-02-03T16:56:36;99410.52;;;3.55;96.02
34696;BME280;20918;51.138;17.370;2023-02-03T16:59:40;99423.31;;;3.56;95.70
34696;BME280;20918;51.138;17.370;2023-02-03T17:02:49;99437.19;;;3.54;95.58
34696;BME280;20918;51.138;17.370;2023-02-03T17:05:55;99450.89;;;3.47;95.02
34696;BME280;20918;51.138;17.370;2023-02-03T17:08:59;99458.19;;;3.40;94.94
34696;BME280;20918;51.138;17.370;2023-02-03T17:12:03;99459.34;;;3.33;95.11
34696;BME280;20918;51.138;17.370;2023-02-03T17:15:08;99452.77;;;3.27;95.19
34696;BME280;20918;51.138;17.370;2023-02-03T17:18:13;99448.20;;;3.21;95.08
34696;BME280;20918;51.138;17.370;2023-02-03T17:21:21;99454.13;;;3.17;95.01
34696;BME280;20918;51.138;17.370;2023-02-03T17:24:23;99459.42;;;3.14;95.13
34696;BME280;20918;51.138;17.370;2023-02-03T17:27:26;99468.91;;;3.11;95.19
34696;BME280;20918;51.138;17.370;2023-02-03T17:30:32;99468.74;;;3.08;95.00
34696;BME280;20918;51.138;17.370;2023-02-03T17:33:40;99470.20;;;3.09;94.86
34696;BME280;20918;51.138;17.370;2023-02-03T17:36:46;99464.13;;;3.08;95.16
34696;BME280;20918;51.138;17.370;2023-02-03T17:39:48;99470.18;;;3.13;94.81
34696;BME280;20918;51.138;17.370;2023-02-03T17:42:52;99480.69;;;3.15;94.97
34696;BME280;20918;51.138;17.370;2023-02-03T17:45:52;99479.90;;;3.14;94.78
34696;BME280;20918;51.138;17.370;2023-02-03T17:48:55;99477.77;;;3.14;94.60
34696;BME280;20918;51.138;17.370;2023-02-03T17:52:02;99477.56;;;3.17;94.44
34696;BME280;20918;51.138;17.370;2023-02-03T17:55:08;99476.99;;;3.19;94.44
34696;BME280;20918;51.138;17.370;2023-02-03T17:58:09;99482.90;;;3.20;94.32
34696;BME280;20918;51.138;17.370;2023-02-03T18:01:17;99475.03;;;3.18;94.23
34696;BME280;20918;51.138;17.370;2023-02-03T18:04:23;99484.41;;;3.21;94.27
34696;BME280;20918;51.138;17.370;2023-02-03T18:07:26;99484.59;;;3.21;94.19
34696;BME280;20918;51.138;17.370;2023-02-03T18:10:27;99488.42;;;3.21;94.06
34696;BME280;20918;51.138;17.370;2023-02-03T18:13:36;99485.21;;;3.18;94.23
34696;BME280;20918;51.138;17.370;2023-02-03T18:16:37;99485.38;;;3.18;94.03
34696;BME280;20918;51.138;17.370;2023-02-03T18:19:40;99493.39;;;3.20;94.06
34696;BME280;20918;51.138;17.370;2023-02-03T18:22:43;99488.19;;;3.18;94.18
34696;BME280;20918;51.138;17.370;2023-02-03T18:25:54;99488.73;;;3.15;94.08
34696;BME280;20918;51.138;17.370;2023-02-03T18:28:56;99495.98;;;3.12;94.17
34696;BME280;20918;51.138;17.370;2023-02-03T18:32:00;99495.29;;;3.10;94.27
34696;BME280;20918;51.138;17.370;2023-02-03T18:35:03;99500.20;;;3.09;94.29
34696;BME280;20918;51.138;17.370;2023-02-03T18:38:07;99497.14;;;3.08;94.56
34696;BME280;20918;51.138;17.370;2023-02-03T18:41:14;99505.71;;;3.08;94.15
34696;BME280;20918;51.138;17.370;2023-02-03T18:44:20;99506.52;;;3.09;94.54
34696;BME280;20918;51.138;17.370;2023-02-03T18:47:24;99510.08;;;3.10;94.51